createdAt,value
2018-12-12T00:02:19.845Z,36.37
2018-12-12T00:04:49.749Z,35.17
2018-12-12T00:07:20.478Z,39.27
2018-12-12T00:09:50.293Z,35.33
2018-12-12T00:12:20.209Z,35.87
2018-12-12T00:14:50.028Z,31.13
2018-12-12T00:17:19.937Z,36.80
2018-12-12T00:19:49.757Z,40.83
2018-12-12T00:22:19.668Z,36.33
2018-12-12T00:24:49.504Z,36.50
2018-12-12T00:27:19.396Z,38.17
2018-12-12T00:29:49.208Z,32.73
2018-12-12T00:32:19.125Z,33.60
2018-12-12T00:34:48.941Z,39.37
2018-12-12T00:37:18.850Z,31.47
2018-12-12T00:39:48.689Z,37.00
2018-12-12T00:42:18.686Z,34.33
2018-12-12T00:44:48.729Z,31.37
2018-12-12T00:47:18.670Z,33.33
2018-12-12T00:49:48.739Z,37.87
2018-12-12T00:52:18.674Z,41.40
2018-12-12T00:54:48.879Z,36.73
2018-12-12T00:57:19.769Z,40.67
2018-12-12T00:59:49.653Z,38.43
2018-12-12T01:02:19.642Z,43.30
2018-12-12T01:04:49.453Z,33.63
2018-12-12T01:07:19.468Z,35.90
2018-12-12T01:09:49.385Z,40.63
2018-12-12T01:12:19.305Z,48.03
2018-12-12T01:14:49.216Z,40.30
2018-12-12T01:17:19.232Z,36.43
2018-12-12T01:19:49.282Z,48.03
2018-12-12T01:22:19.219Z,43.10
2018-12-12T01:24:49.177Z,52.70
2018-12-12T01:27:19.105Z,45.73
2018-12-12T01:29:49.025Z,46.43
2018-12-12T01:32:18.955Z,48.37
2018-12-12T01:34:48.850Z,44.37
2018-12-12T01:37:19.062Z,68.73
2018-12-12T01:39:48.892Z,46.20
2018-12-12T01:42:18.791Z,36.97
2018-12-12T01:44:48.704Z,42.80
2018-12-12T01:47:18.622Z,45.80
2018-12-12T01:49:48.563Z,32.50
2018-12-12T01:52:18.453Z,39.57
2018-12-12T01:54:48.395Z,43.80
2018-12-12T01:57:18.310Z,41.57
2018-12-12T01:59:48.296Z,37.07
2018-12-12T02:02:18.243Z,37.17
2018-12-12T02:04:48.144Z,46.03
2018-12-12T02:07:18.348Z,37.60
2018-12-12T02:09:48.296Z,41.63
2018-12-12T02:12:18.277Z,38.27
2018-12-12T02:14:48.192Z,38.90
2018-12-12T02:17:18.051Z,33.83
2018-12-12T02:19:48.025Z,32.63
2018-12-12T02:22:17.969Z,30.67
2018-12-12T02:24:47.854Z,34.53
2018-12-12T02:27:17.798Z,35.97
2018-12-12T02:29:47.697Z,31.57
2018-12-12T02:32:17.597Z,37.93
2018-12-12T02:34:47.471Z,36.17
2018-12-12T02:37:17.431Z,42.63
2018-12-12T02:39:47.377Z,37.10
2018-12-12T02:42:17.369Z,31.63
2018-12-12T02:44:47.177Z,35.20
2018-12-12T02:47:17.094Z,35.13
2018-12-12T02:49:46.924Z,28.07
2018-12-12T02:52:16.916Z,31.70
2018-12-12T02:54:46.866Z,30.40
2018-12-12T02:57:16.707Z,30.43
2018-12-12T02:59:46.698Z,32.17
2018-12-12T03:02:16.609Z,37.00
2018-12-12T03:04:46.630Z,29.90
2018-12-12T03:07:16.645Z,28.77
2018-12-12T03:09:46.582Z,42.83
2018-12-12T03:12:16.578Z,34.83
2018-12-12T03:14:46.464Z,34.17
2018-12-12T03:17:16.407Z,41.37
2018-12-12T03:19:46.658Z,28.77
2018-12-12T03:22:16.522Z,45.50
2018-12-12T03:24:46.457Z,35.40
2018-12-12T03:27:16.480Z,43.37
2018-12-12T03:29:46.465Z,39.33
2018-12-12T03:32:16.279Z,34.67
2018-12-12T03:34:46.221Z,46.37
2018-12-12T03:37:16.237Z,42.73
2018-12-12T03:39:46.134Z,34.03
2018-12-12T03:42:16.064Z,36.63
2018-12-12T03:44:45.966Z,33.47
2018-12-12T03:47:15.875Z,37.00
2018-12-12T03:49:45.680Z,35.00
2018-12-12T03:52:15.597Z,38.23
2018-12-12T03:54:45.478Z,38.40
2018-12-12T03:57:15.424Z,44.13
2018-12-12T03:59:45.369Z,41.73
2018-12-12T04:02:15.279Z,50.40
2018-12-12T04:04:45.274Z,35.90
2018-12-12T04:07:15.218Z,46.97
2018-12-12T04:09:45.105Z,52.77
2018-12-12T04:12:15.021Z,46.63
2018-12-12T04:14:44.829Z,40.40
2018-12-12T04:17:14.747Z,46.30
2018-12-12T04:19:44.566Z,55.03
2018-12-12T04:22:14.760Z,56.90
2018-12-12T04:24:44.917Z,35.13
2018-12-12T04:27:14.721Z,49.03
2018-12-12T04:29:44.662Z,37.27
2018-12-12T04:32:14.549Z,45.07
2018-12-12T04:34:44.503Z,37.57
2018-12-12T04:37:14.381Z,35.17
2018-12-12T04:39:44.340Z,35.77
2018-12-12T04:42:14.202Z,37.83
2018-12-12T04:44:44.322Z,36.93
2018-12-12T04:47:14.340Z,42.20
2018-12-12T04:49:44.251Z,44.27
2018-12-12T04:52:14.197Z,44.87
2018-12-12T04:54:44.102Z,37.30
2018-12-12T04:57:14.030Z,52.37
2018-12-12T04:59:44.045Z,40.70
2018-12-12T05:02:16.300Z,41.03
2018-12-12T05:04:46.399Z,38.97
2018-12-12T05:07:16.319Z,36.73
2018-12-12T05:09:46.238Z,41.93
2018-12-12T05:12:16.157Z,38.60
2018-12-12T05:14:46.074Z,45.37
2018-12-12T05:17:15.888Z,43.43
2018-12-12T05:19:45.849Z,40.83
2018-12-12T05:22:15.768Z,38.30
2018-12-12T05:24:45.789Z,36.20
2018-12-12T05:27:15.802Z,39.33
2018-12-12T05:29:45.662Z,46.53
2018-12-12T05:32:15.491Z,36.20
2018-12-12T05:34:45.594Z,38.73
2018-12-12T05:37:15.470Z,36.13
2018-12-12T05:39:45.420Z,40.37
2018-12-12T05:42:15.363Z,39.77
2018-12-12T05:44:45.265Z,43.33
2018-12-12T05:47:15.198Z,42.10
2018-12-12T05:49:45.108Z,36.77
2018-12-12T05:52:15.097Z,33.57
2018-12-12T05:54:44.915Z,43.17
2018-12-12T05:57:14.845Z,33.27
2018-12-12T05:59:44.772Z,36.93
2018-12-12T06:02:14.662Z,33.83
2018-12-12T06:04:44.603Z,31.87
2018-12-12T06:07:14.487Z,32.67
2018-12-12T06:09:44.401Z,32.43
2018-12-12T06:12:14.247Z,34.73
2018-12-12T06:14:44.236Z,33.13
2018-12-12T06:17:14.183Z,30.53
2018-12-12T06:19:44.453Z,40.93
2018-12-12T06:22:14.594Z,42.37
2018-12-12T06:24:44.604Z,33.73
2018-12-12T06:27:14.453Z,40.57
2018-12-12T06:29:44.437Z,36.33
2018-12-12T06:32:14.254Z,33.27
2018-12-12T06:34:44.168Z,34.37
2018-12-12T06:37:14.037Z,35.30
2018-12-12T06:39:43.997Z,34.20
2018-12-12T06:42:13.837Z,29.10
2018-12-12T06:44:43.825Z,28.07
2018-12-12T06:47:13.771Z,26.33
2018-12-12T06:49:43.714Z,28.43
2018-12-12T06:52:13.773Z,28.27
2018-12-12T06:54:43.620Z,27.27
2018-12-12T06:57:13.459Z,30.37
2018-12-12T06:59:43.989Z,26.63
2018-12-12T07:02:13.904Z,27.53
2018-12-12T07:04:44.130Z,28.07
2018-12-12T07:07:14.421Z,35.53
2018-12-12T07:09:44.332Z,40.87
2018-12-12T07:12:14.332Z,46.23
2018-12-12T07:14:44.147Z,38.33
2018-12-12T07:17:14.265Z,30.03
2018-12-12T07:19:44.202Z,25.00
2018-12-12T07:22:14.248Z,27.27
2018-12-12T07:24:44.209Z,26.37
2018-12-12T07:27:14.192Z,27.33
2018-12-12T07:29:44.254Z,27.83
2018-12-12T07:32:14.185Z,29.13
2018-12-12T07:34:44.068Z,31.70
2018-12-12T07:37:14.012Z,29.53
2018-12-12T07:39:43.912Z,29.90
2018-12-12T07:42:13.816Z,29.80
2018-12-12T07:44:43.637Z,32.93
2018-12-12T07:47:14.442Z,28.53
2018-12-12T07:49:44.509Z,32.10
2018-12-12T07:52:14.525Z,29.10
2018-12-12T07:54:44.550Z,36.33
2018-12-12T07:57:14.490Z,31.53
2018-12-12T07:59:44.603Z,32.30
2018-12-12T08:02:14.633Z,35.57
2018-12-12T08:04:44.589Z,38.13
2018-12-12T08:07:14.538Z,33.73
2018-12-12T08:09:44.420Z,34.70
2018-12-12T08:12:14.537Z,37.80
2018-12-12T08:14:44.349Z,37.77
2018-12-12T08:17:14.270Z,32.90
2018-12-12T08:19:44.089Z,35.00
2018-12-12T08:22:13.994Z,35.67
2018-12-12T08:24:43.904Z,31.93
2018-12-12T08:27:13.728Z,37.97
2018-12-12T08:29:43.670Z,33.87
2018-12-12T08:32:13.813Z,44.33
2018-12-12T08:34:43.801Z,30.73
2018-12-12T08:37:13.691Z,30.43
2018-12-12T08:39:43.605Z,30.30
2018-12-12T08:42:13.420Z,34.27
2018-12-12T08:44:43.332Z,29.13
2018-12-12T08:47:13.272Z,33.87
2018-12-12T08:49:43.187Z,32.17
2018-12-12T08:52:13.177Z,31.00
2018-12-12T08:54:42.988Z,27.10
2018-12-12T08:57:13.081Z,30.30
2018-12-12T08:59:43.060Z,27.47
2018-12-12T09:02:13.045Z,30.10
2018-12-12T09:04:42.985Z,31.30
2018-12-12T09:07:12.931Z,31.80
2018-12-12T09:09:43.151Z,30.40
2018-12-12T09:12:13.037Z,32.00
2018-12-12T09:14:43.030Z,26.97
2018-12-12T09:17:12.940Z,24.57
2018-12-12T09:19:42.856Z,27.70
2018-12-12T09:22:12.696Z,27.57
2018-12-12T09:24:42.581Z,23.37
2018-12-12T09:27:12.501Z,24.70
2018-12-12T09:29:42.441Z,27.00
2018-12-12T09:32:12.386Z,23.97
2018-12-12T09:34:42.367Z,25.73
2018-12-12T09:37:12.267Z,22.90
2018-12-12T09:39:42.178Z,21.17
2018-12-12T09:42:11.993Z,20.40
2018-12-12T09:44:41.912Z,19.13
2018-12-12T09:47:11.774Z,21.77
2018-12-12T09:49:41.735Z,22.93
2018-12-12T09:52:11.573Z,24.30
2018-12-12T09:54:41.570Z,18.93
2018-12-12T09:57:11.405Z,22.27
2018-12-12T09:59:41.402Z,25.57
2018-12-12T10:02:11.442Z,24.17
2018-12-12T10:04:41.442Z,25.87
2018-12-12T10:07:11.377Z,19.60
2018-12-12T10:09:41.273Z,25.07
2018-12-12T10:12:11.209Z,23.43
2018-12-12T10:14:50.017Z,20.90
2018-12-12T10:17:25.601Z,22.10
2018-12-12T10:20:06.433Z,19.03
2018-12-12T10:25:32.698Z,19.53
2018-12-12T10:28:12.283Z,16.50
2018-12-12T10:30:49.345Z,19.27
2018-12-12T10:33:37.789Z,22.30
2018-12-12T10:36:09.804Z,21.97
2018-12-12T10:38:39.841Z,27.60
2018-12-12T10:41:09.694Z,22.43
2018-12-12T10:43:39.656Z,23.57
2018-12-12T10:46:09.492Z,37.00
2018-12-12T10:49:00.841Z,43.50
2018-12-12T10:51:35.774Z,45.40
2018-12-12T10:57:00.557Z,18.63
2018-12-12T10:59:41.400Z,19.57
2018-12-12T11:02:16.229Z,16.73
2018-12-12T11:04:53.316Z,18.93
2018-12-12T11:07:30.842Z,17.83
2018-12-12T11:10:00.841Z,18.10
2018-12-12T11:12:30.766Z,24.17
2018-12-12T11:15:00.857Z,16.67
2018-12-12T11:17:30.877Z,16.10
2018-12-12T11:20:00.894Z,15.73
2018-12-12T11:22:30.808Z,19.23
2018-12-12T11:25:05.160Z,18.60
2018-12-12T11:27:35.141Z,15.63
2018-12-12T11:30:05.937Z,15.07
2018-12-12T11:32:35.793Z,14.10
2018-12-12T11:35:06.016Z,14.93
2018-12-12T11:37:36.068Z,17.17
2018-12-12T11:40:06.216Z,13.50
2018-12-12T11:42:36.313Z,15.90
2018-12-12T11:45:06.449Z,17.37
2018-12-12T11:47:37.468Z,15.30
2018-12-12T11:50:07.405Z,16.43
2018-12-12T11:52:37.363Z,18.23
2018-12-12T11:55:07.325Z,17.80
2018-12-12T11:57:37.513Z,15.80
2018-12-12T12:00:07.726Z,19.10
2018-12-12T12:02:37.644Z,16.83
2018-12-12T12:05:07.864Z,17.57
2018-12-12T12:07:37.985Z,16.77
2018-12-12T12:10:10.297Z,17.40
2018-12-12T12:12:40.269Z,17.70
2018-12-12T12:15:10.243Z,15.53
2018-12-12T12:17:40.204Z,17.90
2018-12-12T12:20:10.117Z,15.30
2018-12-12T12:22:39.931Z,14.47
2018-12-12T12:25:09.873Z,16.40
2018-12-12T12:27:39.818Z,14.73
2018-12-12T12:30:09.981Z,17.70
2018-12-12T12:32:39.890Z,18.00
2018-12-12T12:35:09.807Z,16.27
2018-12-12T12:37:40.061Z,15.83
2018-12-12T12:40:09.974Z,13.53
2018-12-12T12:42:39.989Z,20.20
2018-12-12T12:45:09.914Z,16.27
2018-12-12T12:47:39.897Z,17.30
2018-12-12T12:50:09.814Z,17.87
2018-12-12T12:52:39.640Z,17.37
2018-12-12T12:55:09.569Z,17.57
2018-12-12T12:57:39.466Z,16.43
2018-12-12T13:00:09.685Z,19.30
2018-12-12T13:02:39.621Z,14.53
2018-12-12T13:05:09.565Z,19.03
2018-12-12T13:07:40.578Z,15.07
2018-12-12T13:10:11.684Z,16.60
2018-12-12T13:12:42.532Z,17.00
2018-12-12T13:15:12.757Z,17.40
2018-12-12T13:17:42.736Z,21.57
2018-12-12T13:20:12.947Z,24.63
2018-12-12T13:22:42.941Z,21.03
2018-12-12T13:25:12.829Z,26.53
2018-12-12T13:27:42.837Z,31.30
2018-12-12T13:30:12.653Z,23.53
2018-12-12T13:32:42.568Z,27.70
2018-12-12T13:35:12.508Z,26.13
2018-12-12T13:37:42.535Z,24.60
2018-12-12T13:40:12.521Z,24.10
2018-12-12T13:42:42.329Z,23.70
2018-12-12T13:45:12.256Z,27.73
2018-12-12T13:47:42.296Z,23.43
2018-12-12T13:50:12.201Z,28.03
2018-12-12T13:52:42.231Z,26.13
2018-12-12T13:55:12.140Z,25.00
2018-12-12T13:57:43.079Z,26.10
2018-12-12T14:00:13.065Z,25.93
2018-12-12T14:02:42.911Z,25.97
2018-12-12T14:05:12.853Z,25.13
2018-12-12T14:07:42.812Z,28.07
2018-12-12T14:10:12.622Z,25.33
2018-12-12T14:12:42.542Z,26.37
2018-12-12T14:15:12.368Z,26.33
2018-12-12T14:17:42.375Z,27.13
2018-12-12T14:20:12.340Z,25.23
2018-12-12T14:22:42.201Z,26.47
2018-12-12T14:25:12.131Z,27.70
2018-12-12T14:27:42.045Z,26.93
2018-12-12T14:30:11.948Z,30.73
2018-12-12T14:32:41.757Z,32.63
2018-12-12T14:35:11.671Z,34.23
2018-12-12T14:37:41.620Z,32.80
2018-12-12T14:40:11.709Z,29.77
2018-12-12T14:42:41.650Z,29.97
2018-12-12T14:45:11.593Z,29.40
2018-12-12T14:47:42.494Z,36.03
2018-12-12T14:50:12.391Z,30.07
2018-12-12T14:52:42.201Z,30.17
2018-12-12T14:55:12.115Z,30.13
2018-12-12T14:57:42.161Z,28.17
2018-12-12T15:00:12.469Z,30.30
2018-12-12T15:02:42.376Z,26.50
2018-12-12T15:05:12.192Z,24.57
2018-12-12T15:07:42.201Z,30.77
2018-12-12T15:10:12.250Z,33.23
2018-12-12T15:12:42.137Z,33.73
2018-12-12T15:15:12.049Z,30.57
2018-12-12T15:17:41.985Z,33.10
2018-12-12T15:20:11.880Z,33.63
2018-12-12T15:22:41.830Z,30.43
2018-12-12T15:25:11.813Z,30.90
2018-12-12T15:27:41.866Z,28.30
2018-12-12T15:30:11.849Z,31.53
2018-12-12T15:32:41.765Z,33.63
2018-12-12T15:35:11.676Z,30.57
2018-12-12T15:37:41.627Z,35.43
2018-12-12T15:40:11.686Z,30.07
2018-12-12T15:42:41.627Z,26.37
2018-12-12T15:45:11.451Z,30.63
2018-12-12T15:47:41.489Z,32.23
2018-12-12T15:50:11.405Z,33.60
2018-12-12T15:52:41.390Z,34.90
2018-12-12T15:55:11.232Z,34.57
2018-12-12T15:57:41.253Z,32.77
2018-12-12T16:00:11.266Z,30.67
2018-12-12T16:02:41.537Z,32.87
2018-12-12T16:05:11.480Z,33.07
2018-12-12T16:07:41.427Z,27.60
2018-12-12T16:10:11.409Z,31.73
2018-12-12T16:12:41.362Z,32.37
2018-12-12T16:15:11.360Z,30.47
2018-12-12T16:17:41.573Z,30.50
2018-12-12T16:20:11.435Z,33.40
2018-12-12T16:22:41.396Z,37.00
2018-12-12T16:25:11.337Z,34.97
2018-12-12T16:27:41.219Z,40.40
2018-12-12T16:30:11.165Z,39.70
2018-12-12T16:32:41.361Z,44.97
2018-12-12T16:35:11.276Z,40.60
2018-12-12T16:37:41.321Z,39.87
2018-12-12T16:40:11.231Z,41.23
2018-12-12T16:42:41.329Z,42.27
2018-12-12T16:45:11.272Z,44.50
2018-12-12T16:47:41.157Z,42.73
2018-12-12T16:50:11.072Z,43.23
2018-12-12T16:52:40.917Z,46.83
2018-12-12T16:55:11.008Z,41.67
2018-12-12T16:57:41.033Z,43.80
2018-12-12T17:00:11.196Z,46.87
2018-12-12T17:02:41.165Z,43.37
2018-12-12T17:05:10.982Z,37.77
2018-12-12T17:07:40.988Z,44.07
2018-12-12T17:10:11.017Z,47.40
2018-12-12T17:12:41.032Z,43.27
2018-12-12T17:15:10.976Z,35.20
2018-12-12T17:17:40.888Z,41.23
2018-12-12T17:20:10.873Z,36.77
2018-12-12T17:22:40.846Z,46.73
2018-12-12T17:25:10.836Z,42.73
2018-12-12T17:27:40.821Z,40.30
2018-12-12T17:30:10.806Z,32.70
2018-12-12T17:32:40.752Z,48.83
2018-12-12T17:35:10.701Z,34.93
2018-12-12T17:37:40.721Z,31.80
2018-12-12T17:40:10.866Z,49.30
2018-12-12T17:42:40.826Z,32.60
2018-12-12T17:45:10.638Z,69.53
2018-12-12T17:47:40.657Z,37.83
2018-12-12T17:50:10.602Z,84.53
2018-12-12T17:52:40.506Z,55.60
2018-12-12T17:55:10.708Z,75.23
2018-12-12T17:57:40.678Z,73.37
2018-12-12T18:00:10.698Z,65.33
2018-12-12T18:02:40.662Z,44.93
2018-12-12T18:05:15.173Z,49.30
2018-12-12T18:07:42.540Z,38.93
2018-12-12T18:10:12.456Z,60.30
2018-12-12T18:12:42.423Z,37.37
2018-12-12T18:15:12.424Z,37.93
2018-12-12T18:17:42.325Z,56.43
2018-12-12T18:20:12.317Z,67.07
2018-12-12T18:22:42.257Z,72.93
2018-12-12T18:25:12.262Z,50.80
2018-12-12T18:27:42.269Z,56.97
2018-12-12T18:30:12.081Z,36.50
2018-12-12T18:32:41.988Z,36.90
2018-12-12T18:35:11.941Z,66.37
2018-12-12T18:37:41.925Z,45.13
2018-12-12T18:40:11.844Z,42.53
2018-12-12T18:42:41.676Z,48.83
2018-12-12T18:45:11.777Z,78.37
2018-12-12T18:47:41.888Z,42.13
2018-12-12T18:50:11.734Z,50.57
2018-12-12T18:52:41.721Z,58.93
2018-12-12T18:55:11.665Z,60.07
2018-12-12T18:57:41.608Z,56.03
2018-12-12T19:00:11.568Z,43.77
2018-12-12T19:02:41.385Z,36.93
2018-12-12T19:05:11.310Z,35.00
2018-12-12T19:07:41.212Z,37.60
2018-12-12T19:10:11.125Z,37.73
2018-12-12T19:12:41.073Z,33.33
2018-12-12T19:15:11.126Z,36.33
2018-12-12T19:17:41.076Z,44.67
2018-12-12T19:20:11.093Z,30.93
2018-12-12T19:22:41.009Z,34.83
2018-12-12T19:25:10.975Z,30.30
2018-12-12T19:27:40.895Z,32.47
2018-12-12T19:30:10.966Z,33.40
2018-12-12T19:32:40.823Z,31.73
2018-12-12T19:35:11.257Z,34.00
2018-12-12T19:37:42.140Z,33.77
2018-12-12T19:40:12.052Z,40.33
2018-12-12T19:42:41.864Z,36.23
2018-12-12T19:45:11.882Z,37.40
2018-12-12T19:47:41.904Z,35.53
2018-12-12T19:50:11.746Z,36.17
2018-12-12T19:52:42.033Z,34.23
2018-12-12T19:55:11.981Z,32.73
2018-12-12T19:57:41.898Z,36.37
2018-12-12T20:00:12.005Z,36.67
2018-12-12T20:02:42.029Z,33.77
2018-12-12T20:05:11.950Z,33.33
2018-12-12T20:07:41.937Z,28.90
2018-12-12T20:10:11.753Z,32.10
2018-12-12T20:12:42.022Z,30.03
2018-12-12T20:15:16.141Z,30.80
2018-12-12T20:17:46.211Z,29.37
2018-12-12T20:20:16.020Z,31.57
2018-12-12T20:22:45.948Z,30.33
2018-12-12T20:25:15.877Z,31.13
2018-12-12T20:27:45.986Z,34.97
2018-12-12T20:30:15.998Z,30.40
2018-12-12T20:32:45.798Z,32.63
2018-12-12T20:35:15.718Z,30.27
2018-12-12T20:37:46.004Z,29.17
2018-12-12T20:40:15.880Z,25.07
2018-12-12T20:42:46.085Z,26.97
2018-12-12T20:45:16.111Z,26.03
2018-12-12T20:47:46.526Z,26.03
2018-12-12T20:50:16.552Z,28.77
2018-12-12T20:52:46.685Z,26.87
2018-12-12T20:55:17.011Z,26.03
2018-12-12T20:57:47.001Z,26.70
2018-12-12T21:00:17.028Z,24.07
2018-12-12T21:02:46.876Z,23.70
2018-12-12T21:05:16.857Z,24.87
2018-12-12T21:07:46.873Z,23.53
2018-12-12T21:10:16.665Z,28.67
2018-12-12T21:12:46.439Z,23.27
2018-12-12T21:15:16.414Z,22.10
2018-12-12T21:17:46.478Z,22.57
2018-12-12T21:20:16.680Z,26.47
2018-12-12T21:22:46.614Z,24.53
2018-12-12T21:25:16.478Z,22.30
2018-12-12T21:27:46.617Z,20.30
2018-12-12T21:30:17.365Z,21.43
2018-12-12T21:32:47.466Z,22.60
2018-12-12T21:35:17.358Z,22.00
2018-12-12T21:37:47.373Z,20.27
2018-12-12T21:40:17.289Z,20.50
2018-12-12T21:42:47.110Z,23.47
2018-12-12T21:45:16.914Z,22.13
2018-12-12T21:47:47.090Z,19.33
2018-12-12T21:50:17.116Z,20.30
2018-12-12T21:52:47.071Z,20.03
2018-12-12T21:55:16.889Z,16.97
2018-12-12T21:57:46.901Z,19.17
2018-12-12T22:00:17.165Z,17.37
2018-12-12T22:02:47.037Z,16.03
2018-12-12T22:05:16.954Z,18.13
2018-12-12T22:07:46.869Z,20.43
2018-12-12T22:10:16.682Z,21.03
2018-12-12T22:12:46.521Z,15.97
2018-12-12T22:15:16.514Z,17.57
2018-12-12T22:17:46.553Z,19.00
2018-12-12T22:20:16.554Z,19.50
2018-12-12T22:22:46.412Z,20.63
2018-12-12T22:25:16.438Z,16.53
2018-12-12T22:27:46.422Z,23.37
2018-12-12T22:30:16.335Z,18.87
2018-12-12T22:32:46.229Z,16.63
2018-12-12T22:35:16.100Z,17.23
2018-12-12T22:37:45.950Z,16.20
2018-12-12T22:40:15.768Z,16.30
2018-12-12T22:42:45.673Z,14.77
2018-12-12T22:45:15.589Z,16.83
2018-12-12T22:47:45.397Z,18.23
2018-12-12T22:50:15.317Z,14.70
2018-12-12T22:52:45.394Z,14.70
2018-12-12T22:55:15.359Z,14.10
2018-12-12T22:57:45.264Z,14.47
2018-12-12T23:00:20.571Z,18.07
2018-12-12T23:02:50.318Z,13.73
2018-12-12T23:05:20.292Z,13.03
2018-12-12T23:07:50.178Z,16.63
2018-12-12T23:10:20.164Z,15.80
2018-12-12T23:12:50.213Z,15.83
2018-12-12T23:15:20.130Z,14.83
2018-12-12T23:17:50.152Z,14.27
2018-12-12T23:20:20.037Z,17.50
2018-12-12T23:22:50.077Z,13.93
2018-12-12T23:25:20.097Z,13.97
2018-12-12T23:27:49.936Z,13.70
2018-12-12T23:30:19.898Z,13.70
2018-12-12T23:32:49.739Z,14.37
2018-12-12T23:35:19.720Z,14.10
2018-12-12T23:37:49.673Z,14.77
2018-12-12T23:40:19.513Z,13.40
2018-12-12T23:42:49.365Z,13.77
2018-12-12T23:45:19.283Z,14.17
2018-12-12T23:47:49.297Z,14.50
2018-12-12T23:50:18.967Z,15.20
2018-12-12T23:52:48.838Z,10.77
2018-12-12T23:55:18.765Z,17.37
2018-12-12T23:57:48.650Z,12.67
